Terminal Aerodrome Forecast
Issued by NWS

Home | Current Version | Previous Version | Text Only | Print | Product List | Glossary On
Versions: 1 2 3 4 5 6 7 8 9 10 11 12 13 14 15 16
000
FTUS44 KJAN 290500
TAFGTR
TAF
KGTR 290529Z 2906/3006 36004KT P6SM -RA OVC006
     FM290800 36005KT 4SM -DZ OVC004
     FM291600 36005KT P6SM OVC007
     FM291900 35005KT P6SM OVC012=

USA.gov is the U.S. government's official web portal to all federal, state and local government web resources and services.